Time;durP1;ratioP1;P1;durP2;ratioP2;P2;SDS_P1;SDS_P2;PMS_P1;PMS_P2;Temp;Humidity;BMP_temperature;BMP_pressure;BME280_temperature;BME280_humidity;BME280_pressure;Samples;Min_cycle;Max_cycle;Signal;HPM_P1;HPM_P2
2023/02/08 00:00:18;;;;;;;;;;;0.00;1.00;;;;;;5084106;28;19924;-61
2023/02/08 00:02:44;;;;;;;;;;;0.00;1.00;;;;;;5085312;28;20287;-63
2023/02/08 00:05:11;;;;;;;;;;;0.00;1.00;;;;;;5085016;28;19924;-62
2023/02/08 00:07:37;;;;;;;;;;;0.00;1.00;;;;;;5081693;28;19928;-61
2023/02/08 00:10:05;;;;;;;;;;;-0.10;1.00;;;;;;5081923;28;19970;-62
2023/02/08 00:12:33;;;;;;;;;;;-0.10;1.00;;;;;;5091419;28;20341;-61
2023/02/08 00:15:00;;;;;;;;;;;-0.10;1.00;;;;;;5083531;28;19943;-62
2023/02/08 00:17:26;;;;;;;;;;;-0.20;1.00;;;;;;5084824;28;19923;-62
2023/02/08 00:19:53;;;;;;;;;;;-0.20;1.00;;;;;;5081314;28;19974;-62
2023/02/08 00:22:20;;;;;;;;;;;-0.20;1.00;;;;;;5086695;28;20021;-62
2023/02/08 00:24:47;;;;;;;;;;;-0.20;1.00;;;;;;5083750;28;20249;-62
2023/02/08 00:27:14;;;;;;;;;;;-0.30;1.00;;;;;;5081162;28;20420;-62
2023/02/08 00:29:42;;;;;;;;;;;-0.30;1.00;;;;;;5082195;28;19924;-61
2023/02/08 00:32:09;;;;;;;;;;;-0.30;1.00;;;;;;5083376;28;19927;-61
2023/02/08 00:34:36;;;;;;;;;;;-0.40;1.00;;;;;;5082066;28;19966;-62
2023/02/08 00:37:02;;;;;;;;;;;-0.40;1.00;;;;;;5084735;28;19927;-62
2023/02/08 00:39:29;;;;;;;;;;;-0.40;1.00;;;;;;5081412;28;19924;-62
2023/02/08 00:41:55;;;;;;;;;;;-0.40;1.00;;;;;;5090291;28;19925;-62
2023/02/08 00:44:22;;;;;;;;;;;-0.50;1.00;;;;;;5076781;28;19929;-62
2023/02/08 00:46:50;;;;;;;;;;;-0.60;1.00;;;;;;5082084;28;19939;-62
2023/02/08 00:49:16;;;;;;;;;;;-0.60;1.00;;;;;;5081832;28;19920;-62
2023/02/08 00:51:43;;;;;;;;;;;-0.60;1.00;;;;;;5084300;28;19929;-62
2023/02/08 00:54:13;;;;;;;;;;;-0.60;1.00;;;;;;5081292;28;20436;-62
2023/02/08 00:56:39;;;;;;;;;;;-0.60;1.00;;;;;;5080493;28;19920;-62
2023/02/08 00:59:06;;;;;;;;;;;-0.50;1.00;;;;;;5082064;28;19981;-62
2023/02/08 01:01:32;;;;;;;;;;;-0.60;1.00;;;;;;5084696;28;19924;-62
2023/02/08 01:04:00;;;;;;;;;;;-0.60;1.00;;;;;;5081425;28;19925;-62
2023/02/08 01:06:27;;;;;;;;;;;-0.60;1.00;;;;;;5084578;28;19924;-62
2023/02/08 01:08:53;;;;;;;;;;;-0.60;1.00;;;;;;5080726;28;19927;-62
2023/02/08 01:11:23;;;;;;;;;;;-0.60;1.00;;;;;;5084500;28;20386;-62
2023/02/08 01:13:52;;;;;;;;;;;-0.70;1.00;;;;;;5085415;28;19921;-62
2023/02/08 01:16:19;;;;;;;;;;;-0.70;1.00;;;;;;5083903;28;19919;-62
2023/02/08 01:18:47;;;;;;;;;;;-0.70;99.90;;;;;;5083370;28;19920;-62
2023/02/08 01:21:18;;;;;;;;;;;-0.70;99.90;;;;;;5081153;28;19924;-61
2023/02/08 01:23:45;;;;;;;;;;;-0.70;99.90;;;;;;5080697;28;19924;-62
2023/02/08 01:26:12;;;;;;;;;;;-0.70;99.90;;;;;;5080591;28;19924;-62
2023/02/08 01:28:39;;;;;;;;;;;-0.70;49.00;;;;;;5081186;28;19920;-62
2023/02/08 01:31:07;;;;;;;;;;;-0.90;79.70;;;;;;5086776;28;20038;-62
2023/02/08 01:33:33;;;;;;;;;;;-0.90;99.90;;;;;;5082002;28;20019;-62
2023/02/08 01:36:00;;;;;;;;;;;-0.90;99.90;;;;;;5083750;28;19920;-62
2023/02/08 01:38:28;;;;;;;;;;;-0.90;99.90;;;;;;5081709;28;19920;-62
2023/02/08 01:40:54;;;;;;;;;;;-0.80;99.90;;;;;;5083525;28;19966;-62
2023/02/08 01:43:23;;;;;;;;;;;-0.80;99.90;;;;;;5082903;28;19969;-62
2023/02/08 01:45:50;;;;;;;;;;;-0.80;99.90;;;;;;5082506;28;20414;-62
2023/02/08 01:48:18;;;;;;;;;;;-0.90;99.90;;;;;;5082992;28;19981;-61
2023/02/08 01:50:47;;;;;;;;;;;-0.90;99.90;;;;;;5084896;28;19946;-62
2023/02/08 01:53:14;;;;;;;;;;;-0.90;99.90;;;;;;5080678;28;19966;-61
2023/02/08 01:55:44;;;;;;;;;;;-0.90;99.90;;;;;;5083994;28;19974;-61
2023/02/08 01:58:12;;;;;;;;;;;-1.00;99.90;;;;;;5083769;28;19920;-62
2023/02/08 02:00:39;;;;;;;;;;;-0.90;1.00;;;;;;5084385;28;19965;-62
2023/02/08 02:03:05;;;;;;;;;;;-0.90;1.00;;;;;;5080760;28;19920;-62
2023/02/08 02:05:34;;;;;;;;;;;-0.90;99.90;;;;;;5083630;28;19989;-62
2023/02/08 02:08:00;;;;;;;;;;;-0.90;1.00;;;;;;5081625;28;20001;-62
2023/02/08 02:10:28;;;;;;;;;;;-0.80;99.90;;;;;;5084060;28;19966;-61
2023/02/08 02:12:58;;;;;;;;;;;-0.80;99.90;;;;;;5085749;28;20299;-62
2023/02/08 02:15:24;;;;;;;;;;;-0.70;1.00;;;;;;5088271;28;20540;-62
2023/02/08 02:17:51;;;;;;;;;;;-0.60;39.10;;;;;;5084093;28;20342;-62
2023/02/08 02:20:23;;;;;;;;;;;-0.50;1.00;;;;;;5084853;28;19920;-62
2023/02/08 02:23:03;;;;;;;;;;;-0.50;99.90;;;;;;5085642;28;19973;-62
2023/02/08 02:25:48;;;;;;;;;;;-0.40;99.90;;;;;;5083742;28;19985;-62
2023/02/08 02:28:24;;;;;;;;;;;-0.40;99.90;;;;;;5078322;28;19942;-62
2023/02/08 02:31:24;;;;;;;;;;;-0.30;84.20;;;;;;5086068;28;19928;-62
2023/02/08 02:33:58;;;;;;;;;;;-0.30;1.00;;;;;;5018707;28;20007;-62
2023/02/08 02:36:31;;;;;;;;;;;-0.40;99.90;;;;;;5014729;28;19922;-61
2023/02/08 02:39:02;;;;;;;;;;;-0.30;80.10;;;;;;5055955;28;20386;-62
2023/02/08 02:44:21;;;;;;;;;;;-0.20;1.00;;;;;;5087335;28;19923;-62
2023/02/08 02:46:50;;;;;;;;;;;-0.30;1.00;;;;;;5082009;28;19928;-62
2023/02/08 02:49:23;;;;;;;;;;;-0.20;99.90;;;;;;5083697;28;19971;-62
2023/02/08 02:51:56;;;;;;;;;;;-0.20;99.90;;;;;;5085721;28;20341;-62
2023/02/08 02:54:25;;;;;;;;;;;-0.10;99.90;;;;;;5083364;28;19925;-62
2023/02/08 02:56:53;;;;;;;;;;;-0.10;99.90;;;;;;5085711;28;19965;-61
2023/02/08 02:59:21;;;;;;;;;;;0.00;99.90;;;;;;5085584;28;19920;-61
2023/02/08 03:01:47;;;;;;;;;;;-0.10;99.90;;;;;;5083075;28;20318;-62
2023/02/08 03:04:14;;;;;;;;;;;0.00;99.90;;;;;;5083670;28;19970;-62
2023/02/08 03:06:49;;;;;;;;;;;0.00;99.90;;;;;;5087641;28;19920;-61
2023/02/08 03:09:25;;;;;;;;;;;0.00;99.90;;;;;;5083039;28;19920;-62
2023/02/08 03:11:56;;;;;;;;;;;0.10;64.00;;;;;;5089387;28;19920;-62
2023/02/08 03:14:30;;;;;;;;;;;0.10;32.60;;;;;;5086923;28;19928;-62
2023/02/08 03:17:02;;;;;;;;;;;0.00;3.80;;;;;;5087716;28;20444;-61
2023/02/08 03:19:35;;;;;;;;;;;0.00;6.00;;;;;;5075642;28;20290;-61
2023/02/08 03:22:05;;;;;;;;;;;0.00;14.00;;;;;;5088927;28;19923;-61
2023/02/08 03:24:36;;;;;;;;;;;0.00;1.00;;;;;;5094098;28;19920;-61
2023/02/08 03:27:06;;;;;;;;;;;0.00;1.00;;;;;;5074051;28;20444;-61
2023/02/08 03:29:39;;;;;;;;;;;0.00;1.00;;;;;;5083500;28;19924;-61
2023/02/08 03:32:08;;;;;;;;;;;0.00;1.00;;;;;;5093406;28;19920;-61
2023/02/08 03:34:39;;;;;;;;;;;0.00;1.00;;;;;;5075293;28;20326;-61
2023/02/08 03:37:10;;;;;;;;;;;0.00;1.00;;;;;;5074318;28;19920;-61
2023/02/08 03:39:37;;;;;;;;;;;0.10;1.00;;;;;;5092081;28;19973;-61
2023/02/08 03:42:06;;;;;;;;;;;0.10;1.00;;;;;;5093341;28;20341;-61
2023/02/08 03:44:34;;;;;;;;;;;0.10;1.00;;;;;;5093766;28;20340;-61
2023/02/08 03:47:02;;;;;;;;;;;0.00;1.00;;;;;;5093527;28;19920;-61
2023/02/08 03:49:30;;;;;;;;;;;0.00;1.00;;;;;;5086872;28;19966;-61
2023/02/08 03:51:59;;;;;;;;;;;0.00;1.00;;;;;;5073023;28;19927;-61
2023/02/08 03:54:29;;;;;;;;;;;0.10;1.00;;;;;;5079513;28;20019;-61
2023/02/08 03:56:57;;;;;;;;;;;0.10;1.00;;;;;;5092488;28;20317;-61
2023/02/08 03:59:26;;;;;;;;;;;0.00;1.00;;;;;;5078677;28;20374;-61
2023/02/08 04:01:56;;;;;;;;;;;0.00;1.00;;;;;;5089237;28;20015;-61
2023/02/08 04:04:24;;;;;;;;;;;0.00;1.00;;;;;;5083801;28;19928;-61
2023/02/08 04:06:51;;;;;;;;;;;0.00;1.00;;;;;;5072961;28;19924;-61
2023/02/08 04:09:17;;;;;;;;;;;0.00;1.00;;;;;;5072929;28;19920;-61
2023/02/08 04:11:45;;;;;;;;;;;-0.10;1.00;;;;;;5083592;28;19969;-61
2023/02/08 04:14:12;;;;;;;;;;;0.00;1.00;;;;;;5092983;28;19946;-61
2023/02/08 04:16:38;;;;;;;;;;;0.00;1.00;;;;;;5092767;28;19946;-61
2023/02/08 04:19:05;;;;;;;;;;;0.00;1.00;;;;;;5092927;28;19973;-61
2023/02/08 04:21:32;;;;;;;;;;;0.10;1.00;;;;;;5092951;28;19927;-61
2023/02/08 04:23:58;;;;;;;;;;;0.10;1.00;;;;;;5082391;28;19926;-61
2023/02/08 04:26:25;;;;;;;;;;;0.10;1.00;;;;;;5078982;28;19927;-61
2023/02/08 04:28:53;;;;;;;;;;;-0.30;1.00;;;;;;5072776;28;19921;-61
2023/02/08 04:31:19;;;;;;;;;;;-0.40;1.00;;;;;;5088417;28;19927;-61
2023/02/08 04:33:46;;;;;;;;;;;-0.80;1.00;;;;;;5093365;28;19920;-61
2023/02/08 04:36:12;;;;;;;;;;;-0.70;64.20;;;;;;5091760;28;19945;-63
2023/02/08 04:38:39;;;;;;;;;;;-0.70;99.90;;;;;;5093557;28;19973;-60
2023/02/08 04:41:06;;;;;;;;;;;-0.60;99.90;;;;;;5088142;28;20344;-62
2023/02/08 04:43:32;;;;;;;;;;;-0.50;99.90;;;;;;5092299;28;20389;-61
2023/02/08 04:46:00;;;;;;;;;;;-0.50;99.90;;;;;;5087237;28;19924;-60
2023/02/08 04:48:26;;;;;;;;;;;-0.60;99.90;;;;;;5085874;28;19928;-61
2023/02/08 04:50:54;;;;;;;;;;;-0.70;99.90;;;;;;5081837;28;20337;-61
2023/02/08 04:53:21;;;;;;;;;;;-0.70;99.90;;;;;;5092377;28;20317;-61
2023/02/08 04:55:47;;;;;;;;;;;-0.60;1.00;;;;;;5085501;28;19966;-61
2023/02/08 04:58:14;;;;;;;;;;;-0.60;1.00;;;;;;5092507;28;20001;-61
2023/02/08 05:00:40;;;;;;;;;;;-0.60;2.50;;;;;;5092415;28;19920;-60
2023/02/08 05:03:09;;;;;;;;;;;-0.60;99.90;;;;;;5092538;28;19920;-61
2023/02/08 05:05:35;;;;;;;;;;;-0.70;99.90;;;;;;5078579;28;19924;-61
2023/02/08 05:08:02;;;;;;;;;;;-0.70;1.00;;;;;;5072442;28;19921;-61
2023/02/08 05:10:28;;;;;;;;;;;-0.60;1.00;;;;;;5073732;28;19924;-61
2023/02/08 05:12:55;;;;;;;;;;;-0.70;52.40;;;;;;5092098;28;19973;-61
2023/02/08 05:15:21;;;;;;;;;;;-0.70;99.90;;;;;;5087928;28;19961;-63
2023/02/08 05:17:48;;;;;;;;;;;-0.90;99.90;;;;;;5078885;28;19924;-61
2023/02/08 05:20:16;;;;;;;;;;;-1.10;9.70;;;;;;5083178;28;19920;-59
2023/02/08 05:22:42;;;;;;;;;;;-1.10;99.90;;;;;;5086673;28;19924;-58
2023/02/08 05:25:09;;;;;;;;;;;-1.00;1.00;;;;;;5082407;28;19965;-60
2023/02/08 05:27:36;;;;;;;;;;;-1.00;99.90;;;;;;5083147;28;19920;-56
2023/02/08 05:30:03;;;;;;;;;;;-1.00;1.00;;;;;;5081478;28;20353;-60
2023/02/08 05:32:29;;;;;;;;;;;-1.00;91.10;;;;;;5084114;28;19920;-58
2023/02/08 05:34:56;;;;;;;;;;;-1.00;99.90;;;;;;5079437;28;19943;-60
2023/02/08 05:37:24;;;;;;;;;;;-1.00;1.00;;;;;;5084775;28;19923;-60
2023/02/08 05:39:50;;;;;;;;;;;-1.10;1.00;;;;;;5080797;28;19920;-63
2023/02/08 05:42:17;;;;;;;;;;;-1.00;1.00;;;;;;5085165;28;19923;-61
2023/02/08 05:44:43;;;;;;;;;;;-1.00;1.00;;;;;;5094071;28;19924;-63
2023/02/08 05:47:10;;;;;;;;;;;-1.00;1.00;;;;;;5090014;28;20312;-62
2023/02/08 05:49:37;;;;;;;;;;;-1.00;16.30;;;;;;5091595;28;19923;-63
2023/02/08 05:52:03;;;;;;;;;;;-1.10;19.70;;;;;;5087623;28;20508;-62
2023/02/08 05:54:31;;;;;;;;;;;-1.20;10.30;;;;;;5088768;28;19920;-62
2023/02/08 05:56:58;;;;;;;;;;;-1.10;1.00;;;;;;5085674;28;20400;-63
2023/02/08 05:59:24;;;;;;;;;;;-1.10;1.00;;;;;;5085935;28;19924;-63
2023/02/08 06:01:51;;;;;;;;;;;-1.10;99.90;;;;;;5089536;28;19920;-62
2023/02/08 06:04:17;;;;;;;;;;;-1.10;99.90;;;;;;5084646;28;19926;-68
2023/02/08 06:06:44;;;;;;;;;;;-1.10;99.90;;;;;;5093477;28;19927;-62
2023/02/08 06:09:10;;;;;;;;;;;-1.10;99.90;;;;;;5090636;28;19924;-63
2023/02/08 06:11:38;;;;;;;;;;;-1.20;99.90;;;;;;5086653;28;19920;-63
2023/02/08 06:14:05;;;;;;;;;;;-1.20;99.90;;;;;;5086571;28;19932;-62
2023/02/08 06:16:31;;;;;;;;;;;-1.20;99.90;;;;;;5088178;28;19919;-60
2023/02/08 06:18:58;;;;;;;;;;;-1.20;99.90;;;;;;5089603;28;19920;-60
2023/02/08 06:21:24;;;;;;;;;;;-1.20;99.90;;;;;;5087861;28;20387;-61
2023/02/08 06:23:51;;;;;;;;;;;-1.30;99.90;;;;;;5086392;28;19920;-62
2023/02/08 06:26:18;;;;;;;;;;;-1.30;99.90;;;;;;5090802;28;19920;-64
2023/02/08 06:28:45;;;;;;;;;;;-1.20;1.00;;;;;;5085947;28;19973;-64
2023/02/08 06:31:12;;;;;;;;;;;-1.20;1.00;;;;;;5084266;28;19924;-63
2023/02/08 06:33:39;;;;;;;;;;;-1.20;1.00;;;;;;5082177;28;19927;-65
2023/02/08 06:36:06;;;;;;;;;;;-1.20;1.00;;;;;;5074828;28;19924;-64
2023/02/08 06:38:33;;;;;;;;;;;-1.30;1.00;;;;;;5086419;28;20020;-62
2023/02/08 06:40:59;;;;;;;;;;;-1.40;1.00;;;;;;5082346;28;19928;-63
2023/02/08 06:43:26;;;;;;;;;;;-1.30;99.90;;;;;;5087846;28;19920;-64
2023/02/08 06:45:53;;;;;;;;;;;-1.30;99.90;;;;;;5081902;28;19920;-65
2023/02/08 06:48:20;;;;;;;;;;;-1.30;1.00;;;;;;5092199;28;20405;-65
2023/02/08 06:50:46;;;;;;;;;;;-1.30;99.90;;;;;;5091360;28;19920;-64
2023/02/08 06:53:13;;;;;;;;;;;-1.40;1.00;;;;;;5089270;28;19935;-65
2023/02/08 06:55:40;;;;;;;;;;;-1.40;29.80;;;;;;5089251;28;20397;-59
2023/02/08 06:58:06;;;;;;;;;;;-1.30;99.90;;;;;;5086202;28;19924;-60
2023/02/08 07:00:34;;;;;;;;;;;-1.40;99.90;;;;;;5085416;28;19923;-60
2023/02/08 07:03:02;;;;;;;;;;;-1.40;99.90;;;;;;5080041;28;19930;-61
2023/02/08 07:05:28;;;;;;;;;;;-1.40;99.90;;;;;;5084717;28;20348;-61
2023/02/08 07:07:55;;;;;;;;;;;-1.60;99.90;;;;;;5087676;28;19925;-62
2023/02/08 07:10:21;;;;;;;;;;;-1.60;99.90;;;;;;5085431;28;19932;-61
2023/02/08 07:12:48;;;;;;;;;;;-1.50;99.90;;;;;;5089625;28;20379;-61
2023/02/08 07:15:14;;;;;;;;;;;-1.40;99.90;;;;;;5087339;28;19934;-63
2023/02/08 07:17:41;;;;;;;;;;;-1.40;99.90;;;;;;5085008;28;19920;-60
2023/02/08 07:20:10;;;;;;;;;;;-1.30;99.90;;;;;;5081903;28;19920;-58
2023/02/08 07:22:36;;;;;;;;;;;-1.30;1.00;;;;;;5080005;28;20290;-59
2023/02/08 07:25:03;;;;;;;;;;;-1.20;1.00;;;;;;5081696;28;19981;-59
2023/02/08 07:27:30;;;;;;;;;;;-1.20;99.90;;;;;;5082614;28;20375;-60
2023/02/08 07:29:57;;;;;;;;;;;-1.10;1.00;;;;;;5084493;28;19920;-60
2023/02/08 07:32:23;;;;;;;;;;;-1.10;1.00;;;;;;5082768;28;19920;-63
2023/02/08 07:34:50;;;;;;;;;;;-1.10;99.90;;;;;;5084216;28;19924;-61
2023/02/08 07:37:18;;;;;;;;;;;-1.00;99.90;;;;;;5080482;28;19974;-61
2023/02/08 07:39:44;;;;;;;;;;;-1.00;1.00;;;;;;5086647;28;19924;-62
2023/02/08 07:42:11;;;;;;;;;;;-0.90;1.00;;;;;;5089110;28;19920;-62
2023/02/08 07:44:38;;;;;;;;;;;-0.90;99.90;;;;;;5088880;28;19920;-63
2023/02/08 07:47:05;;;;;;;;;;;-0.80;99.90;;;;;;5089273;28;19927;-61
2023/02/08 07:49:31;;;;;;;;;;;-0.80;99.90;;;;;;5086584;28;19974;-60
2023/02/08 07:51:58;;;;;;;;;;;-0.70;92.80;;;;;;5082773;28;19924;-57
2023/02/08 07:54:26;;;;;;;;;;;-0.70;1.00;;;;;;5084664;28;19924;-59
2023/02/08 07:56:53;;;;;;;;;;;-0.70;1.00;;;;;;5083515;28;19920;-60
2023/02/08 07:59:19;;;;;;;;;;;-0.60;1.00;;;;;;5085311;28;19920;-62
2023/02/08 08:01:46;;;;;;;;;;;-0.50;99.90;;;;;;5091933;28;19924;-66
2023/02/08 08:04:12;;;;;;;;;;;-0.50;99.90;;;;;;5088929;28;19927;-62
2023/02/08 08:06:39;;;;;;;;;;;-0.40;99.90;;;;;;5080749;28;20002;-64
2023/02/08 08:09:05;;;;;;;;;;;-0.40;99.90;;;;;;5080906;28;19920;-64
2023/02/08 08:11:33;;;;;;;;;;;-0.30;99.90;;;;;;5089710;28;19928;-63
2023/02/08 08:14:00;;;;;;;;;;;-0.30;99.90;;;;;;5086467;28;19921;-63
2023/02/08 08:16:26;;;;;;;;;;;-0.20;99.90;;;;;;5084134;28;19931;-64
2023/02/08 08:18:53;;;;;;;;;;;-0.10;99.90;;;;;;5079852;28;20473;-64
2023/02/08 08:21:19;;;;;;;;;;;-0.10;1.00;;;;;;5082716;28;19920;-64
2023/02/08 08:23:46;;;;;;;;;;;0.10;99.90;;;;;;5081285;28;19977;-64
2023/02/08 08:26:14;;;;;;;;;;;0.10;45.20;;;;;;5078386;28;19969;-64
2023/02/08 08:28:41;;;;;;;;;;;0.30;99.90;;;;;;5084985;28;20410;-63
2023/02/08 08:31:11;;;;;;;;;;;0.50;99.90;;;;;;5085955;28;19973;-64
2023/02/08 08:33:38;;;;;;;;;;;0.60;59.10;;;;;;5080448;28;20252;-63
2023/02/08 08:36:04;;;;;;;;;;;0.70;1.00;;;;;;5082954;28;19924;-64
2023/02/08 08:38:31;;;;;;;;;;;0.80;99.90;;;;;;5081786;28;20479;-64
2023/02/08 08:40:57;;;;;;;;;;;1.00;99.90;;;;;;5080914;28;20501;-65
2023/02/08 08:43:24;;;;;;;;;;;1.10;99.90;;;;;;5084997;28;20382;-65
2023/02/08 08:45:52;;;;;;;;;;;1.20;99.90;;;;;;5082412;28;20403;-65
2023/02/08 08:48:18;;;;;;;;;;;1.20;99.90;;;;;;5085010;28;19973;-65
2023/02/08 08:50:45;;;;;;;;;;;1.20;99.90;;;;;;5083186;28;19927;-64
2023/02/08 08:53:11;;;;;;;;;;;1.30;99.90;;;;;;5089088;28;19927;-64
2023/02/08 08:55:38;;;;;;;;;;;1.40;99.90;;;;;;5085881;28;19920;-62
2023/02/08 08:58:05;;;;;;;;;;;1.50;99.90;;;;;;5077898;28;19924;-64
2023/02/08 09:00:31;;;;;;;;;;;1.70;32.00;;;;;;5084005;28;19927;-64
2023/02/08 09:02:59;;;;;;;;;;;1.80;1.00;;;;;;5087113;28;19924;-63
2023/02/08 09:05:25;;;;;;;;;;;2.10;1.00;;;;;;5087601;28;19928;-63
2023/02/08 09:07:52;;;;;;;;;;;2.30;1.00;;;;;;5079742;28;19921;-64
2023/02/08 09:10:19;;;;;;;;;;;2.50;1.00;;;;;;5080443;28;19920;-64
2023/02/08 09:12:45;;;;;;;;;;;2.70;1.00;;;;;;5087367;28;19974;-63
2023/02/08 09:15:12;;;;;;;;;;;2.80;1.00;;;;;;5084204;28;19989;-64
2023/02/08 09:17:38;;;;;;;;;;;3.00;99.90;;;;;;5090824;28;19927;-64
2023/02/08 09:20:07;;;;;;;;;;;3.10;99.90;;;;;;5090277;28;20003;-63
2023/02/08 09:22:33;;;;;;;;;;;3.10;99.90;;;;;;5081795;28;19920;-62
2023/02/08 09:25:00;;;;;;;;;;;3.20;99.90;;;;;;5087158;28;19928;-63
2023/02/08 09:27:27;;;;;;;;;;;3.10;99.90;;;;;;5086157;28;19966;-63
2023/02/08 09:29:54;;;;;;;;;;;3.30;99.90;;;;;;5085796;28;20387;-63
2023/02/08 09:32:21;;;;;;;;;;;3.40;99.90;;;;;;5091533;28;19924;-62
2023/02/08 09:34:48;;;;;;;;;;;3.50;99.90;;;;;;5092865;28;19931;-64
2023/02/08 09:37:16;;;;;;;;;;;3.60;99.90;;;;;;5079921;28;20345;-64
2023/02/08 09:39:44;;;;;;;;;;;3.60;99.90;;;;;;5090311;28;19943;-64
2023/02/08 09:42:28;;;;;;;;;;;3.40;99.90;;;;;;5085592;28;19920;-63
2023/02/08 09:45:04;;;;;;;;;;;3.40;99.90;;;;;;5079823;28;20338;-61
2023/02/08 09:47:33;;;;;;;;;;;3.40;99.90;;;;;;5088330;28;19924;-64
2023/02/08 09:50:02;;;;;;;;;;;3.50;99.90;;;;;;5090596;28;19920;-61
2023/02/08 09:52:33;;;;;;;;;;;3.60;99.90;;;;;;5091430;28;20624;-65
2023/02/08 09:55:02;;;;;;;;;;;3.60;99.90;;;;;;5092556;28;19920;-64
2023/02/08 09:57:33;;;;;;;;;;;3.60;99.90;;;;;;5080842;28;19927;-64
2023/02/08 10:00:04;;;;;;;;;;;3.70;99.90;;;;;;5082397;28;20275;-65
2023/02/08 10:02:31;;;;;;;;;;;3.80;99.90;;;;;;5079634;28;20302;-63
2023/02/08 10:05:00;;;;;;;;;;;3.80;99.90;;;;;;5086908;28;19927;-63
2023/02/08 10:07:27;;;;;;;;;;;3.80;99.90;;;;;;5089958;28;19965;-63
2023/02/08 10:09:56;;;;;;;;;;;3.90;99.90;;;;;;5084702;28;20328;-64
2023/02/08 10:12:28;;;;;;;;;;;4.00;99.90;;;;;;5087964;28;19920;-64
2023/02/08 10:15:00;;;;;;;;;;;4.10;99.90;;;;;;5087908;28;19965;-64
2023/02/08 10:17:41;;;;;;;;;;;4.20;99.90;;;;;;5090074;28;20378;-64
2023/02/08 10:20:13;;;;;;;;;;;4.20;99.90;;;;;;5085205;28;20337;-65
2023/02/08 10:22:44;;;;;;;;;;;4.10;99.90;;;;;;5081235;28;19927;-64
2023/02/08 10:25:25;;;;;;;;;;;4.30;99.90;;;;;;5089093;28;19920;-66
2023/02/08 10:27:58;;;;;;;;;;;4.60;99.90;;;;;;5084986;28;20329;-61
2023/02/08 10:30:36;;;;;;;;;;;4.60;99.90;;;;;;5087034;28;19928;-62
2023/02/08 10:33:06;;;;;;;;;;;4.70;99.90;;;;;;5081240;28;20329;-65
2023/02/08 10:35:36;;;;;;;;;;;4.80;99.90;;;;;;5086955;28;19920;-68
2023/02/08 10:38:17;;;;;;;;;;;4.90;99.90;;;;;;5090862;28;20011;-64
2023/02/08 10:40:47;;;;;;;;;;;4.80;99.90;;;;;;5081656;28;20050;-64
2023/02/08 10:43:19;;;;;;;;;;;5.00;99.90;;;;;;5085520;28;19931;-65
2023/02/08 10:45:49;;;;;;;;;;;5.10;99.90;;;;;;5093177;28;19969;-64
2023/02/08 10:48:18;;;;;;;;;;;5.30;99.90;;;;;;5081159;28;19920;-66
2023/02/08 10:50:46;;;;;;;;;;;5.30;99.90;;;;;;5085634;28;19924;-65
2023/02/08 10:53:14;;;;;;;;;;;5.50;99.90;;;;;;5087519;28;19975;-64
2023/02/08 10:55:42;;;;;;;;;;;5.40;99.90;;;;;;5082721;28;20068;-63
2023/02/08 10:58:14;;;;;;;;;;;5.40;99.90;;;;;;5087727;28;19927;-66
2023/02/08 11:00:41;;;;;;;;;;;5.50;99.90;;;;;;5082280;28;19924;-64
2023/02/08 11:03:14;;;;;;;;;;;5.70;99.90;;;;;;5080100;28;19925;-64
2023/02/08 11:05:41;;;;;;;;;;;5.80;99.90;;;;;;5085195;28;19942;-65
2023/02/08 11:08:08;;;;;;;;;;;5.90;99.90;;;;;;5086276;28;20023;-64
2023/02/08 11:10:36;;;;;;;;;;;5.80;99.90;;;;;;5083052;28;19966;-64
2023/02/08 11:13:04;;;;;;;;;;;5.90;99.90;;;;;;5089234;28;19924;-63
2023/02/08 11:15:37;;;;;;;;;;;5.80;99.90;;;;;;5080730;28;19975;-63
2023/02/08 11:18:04;;;;;;;;;;;5.90;99.90;;;;;;5084074;28;20272;-61
2023/02/08 11:20:33;;;;;;;;;;;6.00;99.90;;;;;;5086745;28;20342;-62
2023/02/08 11:23:00;;;;;;;;;;;5.80;99.90;;;;;;5080681;28;20418;-63
2023/02/08 11:25:34;;;;;;;;;;;5.90;99.90;;;;;;5083425;28;20375;-62
2023/02/08 11:28:01;;;;;;;;;;;5.90;99.90;;;;;;5072940;28;20404;-63
2023/02/08 11:30:27;;;;;;;;;;;6.90;99.90;;;;;;5079044;28;19924;-65
2023/02/08 11:33:12;;;;;;;;;;;6.00;99.90;;;;;;5081557;28;19920;-63
2023/02/08 11:35:40;;;;;;;;;;;6.00;99.90;;;;;;5073005;28;19924;-64
2023/02/08 11:38:17;;;;;;;;;;;6.00;99.90;;;;;;5080795;28;19921;-63
2023/02/08 11:40:44;;;;;;;;;;;6.10;99.90;;;;;;5080363;28;20520;-65
2023/02/08 11:43:18;;;;;;;;;;;6.40;99.90;;;;;;5087370;28;19965;-64
2023/02/08 11:45:46;;;;;;;;;;;6.50;99.90;;;;;;5090834;28;19942;-63
2023/02/08 11:48:20;;;;;;;;;;;6.80;99.90;;;;;;5087885;28;20295;-63
2023/02/08 11:50:52;;;;;;;;;;;6.70;99.90;;;;;;5083433;28;20302;-63
2023/02/08 11:53:26;;;;;;;;;;;6.50;99.90;;;;;;5081525;28;20386;-63
2023/02/08 11:56:01;;;;;;;;;;;6.70;99.90;;;;;;5080758;28;20005;-62
2023/02/08 11:58:28;;;;;;;;;;;6.60;99.90;;;;;;5088407;28;20275;-63
2023/02/08 12:00:59;;;;;;;;;;;6.50;99.90;;;;;;5082931;28;19937;-63
2023/02/08 12:03:26;;;;;;;;;;;6.40;99.90;;;;;;5092044;28;19947;-63
2023/02/08 12:06:00;;;;;;;;;;;6.40;99.90;;;;;;5092052;28;19934;-63
2023/02/08 12:08:30;;;;;;;;;;;6.80;99.90;;;;;;5088068;28;19920;-63
2023/02/08 12:11:06;;;;;;;;;;;6.80;99.90;;;;;;5083853;28;19924;-65
2023/02/08 12:13:46;;;;;;;;;;;6.90;99.90;;;;;;5088413;28;20366;-63
2023/02/08 12:16:22;;;;;;;;;;;6.80;99.90;;;;;;5084586;28;19973;-63
2023/02/08 12:19:16;;;;;;;;;;;6.80;99.90;;;;;;5075729;28;20410;-62
2023/02/08 12:21:46;;;;;;;7.38;4.50;;;6.90;99.90;;;;;;5041006;28;20451;-67
2023/02/08 12:24:19;;;;;;;5.93;4.63;;;6.90;99.90;;;;;;5081266;28;20422;-66
2023/02/08 12:27:00;;;;;;;6.20;4.70;;;6.90;99.90;;;;;;5081845;28;20414;-66
2023/02/08 12:29:40;;;;;;;5.95;4.10;;;7.20;99.90;;;;;;5082727;28;20421;-63
2023/02/08 12:32:21;;;;;;;7.60;4.38;;;7.40;99.90;;;;;;5086607;28;20494;-64
2023/02/08 12:35:04;;;;;;;5.50;4.10;;;7.70;99.90;;;;;;5070191;28;20412;-65
2023/02/08 12:40:51;;;;;;;5.63;4.22;;;7.80;99.90;;;;;;5070370;28;20400;-64
2023/02/08 12:43:33;;;;;;;5.85;3.90;;;7.50;99.90;;;;;;5095427;28;20413;-64
2023/02/08 12:46:12;;;;;;;5.80;3.70;;;7.20;99.90;;;;;;5086137;28;20415;-64
2023/02/08 12:49:02;;;;;;;6.22;3.80;;;7.30;99.90;;;;;;5090649;28;20422;-64
2023/02/08 12:51:36;;;;;;;6.70;4.07;;;7.30;99.90;;;;;;5077234;28;20410;-64
2023/02/08 12:54:09;;;;;;;4.97;3.50;;;7.60;99.90;;;;;;5090680;28;21103;-64
2023/02/08 12:56:40;;;;;;;5.05;3.47;;;7.80;99.90;;;;;;5089164;28;20465;-64
2023/02/08 12:59:11;;;;;;;4.72;3.30;;;7.80;99.90;;;;;;5070398;28;20415;-64
2023/02/08 13:01:43;;;;;;;5.68;3.58;;;8.00;99.90;;;;;;5085593;28;20437;-64
2023/02/08 13:04:14;;;;;;;4.97;3.30;;;8.10;99.90;;;;;;5077465;28;20425;-64
2023/02/08 13:06:44;;;;;;;5.23;3.23;;;8.00;99.90;;;;;;5074239;28;20423;-64
2023/02/08 13:09:20;;;;;;;4.78;3.33;;;7.80;99.90;;;;;;5075278;28;20411;-64
2023/02/08 13:11:52;;;;;;;3.80;2.72;;;7.80;99.90;;;;;;5089801;28;20410;-64
2023/02/08 13:14:28;;;;;;;4.45;3.03;;;7.70;99.90;;;;;;5088661;28;20418;-64
2023/02/08 13:17:01;;;;;;;4.07;2.67;;;7.60;99.90;;;;;;5086322;28;20422;-64
2023/02/08 13:19:33;;;;;;;5.68;3.25;;;7.70;99.90;;;;;;5076838;28;20416;-64
2023/02/08 13:22:00;;;;;;;4.72;3.22;;;7.60;99.90;;;;;;5078027;28;20409;-64
2023/02/08 13:24:34;;;;;;;4.05;3.15;;;7.90;99.90;;;;;;5078614;28;20421;-64
2023/02/08 13:27:01;;;;;;;5.07;2.70;;;8.20;99.90;;;;;;5077848;28;20409;-65
2023/02/08 13:29:29;;;;;;;4.72;2.58;;;8.30;99.90;;;;;;5082663;28;20424;-64
2023/02/08 13:32:00;;;;;;;4.57;2.97;;;8.30;99.90;;;;;;5079951;28;21197;-66
2023/02/08 13:34:32;;;;;;;4.03;2.80;;;8.30;99.90;;;;;;5077817;28;20461;-64
2023/02/08 13:37:02;;;;;;;6.40;2.50;;;8.50;99.90;;;;;;5080891;28;20851;-64
2023/02/08 13:39:36;;;;;;;5.47;2.80;;;8.30;99.90;;;;;;5079540;28;20457;-65
2023/02/08 13:42:06;;;;;;;5.32;2.95;;;8.30;99.90;;;;;;5081224;28;20491;-65
2023/02/08 13:44:35;;;;;;;6.40;3.40;;;8.50;99.90;;;;;;5079722;28;20420;-64
2023/02/08 13:47:04;;;;;;;5.50;3.17;;;8.40;99.90;;;;;;5082504;28;20414;-64
2023/02/08 13:49:44;;;;;;;4.40;2.75;;;8.60;99.90;;;;;;5085506;28;20815;-65
2023/02/08 13:52:11;;;;;;;4.07;2.72;;;8.70;99.90;;;;;;5080491;28;20449;-63
2023/02/08 13:54:39;;;;;;;5.40;2.80;;;8.40;99.90;;;;;;5078334;28;20418;-66
2023/02/08 13:57:39;;;;;;;4.10;2.55;;;8.20;99.90;;;;;;5086476;28;20429;-65
2023/02/08 14:00:23;;;;;;;3.60;2.90;;;8.10;99.90;;;;;;5064808;28;20427;-66
2023/02/08 14:02:59;;;;;;;4.07;2.78;;;8.20;99.90;;;;;;5074289;28;20420;-65
2023/02/08 14:05:47;;;;;;;4.60;2.97;;;8.10;99.90;;;;;;5090323;28;20418;-64
2023/02/08 14:08:25;;;;;;;5.37;2.90;;;7.90;99.90;;;;;;5084733;28;20772;-64
2023/02/08 14:11:07;;;;;;;4.78;3.08;;;7.80;99.90;;;;;;5084493;28;20422;-65
2023/02/08 14:13:38;;;;;;;4.20;2.87;;;7.70;99.90;;;;;;5083458;28;20414;-65
2023/02/08 14:16:28;;;;;;;4.30;3.23;;;7.60;99.90;;;;;;5083700;28;20463;-64
2023/02/08 14:18:57;;;;;;;4.35;2.88;;;7.80;99.90;;;;;;5082715;28;20412;-65
2023/02/08 14:21:32;;;;;;;3.97;3.05;;;7.80;99.90;;;;;;5084888;28;20418;-64
2023/02/08 14:24:02;;;;;;;4.95;3.20;;;7.70;99.90;;;;;;5081207;28;20833;-65
2023/02/08 14:26:31;;;;;;;4.38;2.90;;;7.60;99.90;;;;;;5082853;28;20836;-65
2023/02/08 14:29:01;;;;;;;4.38;3.28;;;7.60;99.90;;;;;;5079768;28;20776;-63
2023/02/08 14:31:40;;;;;;;4.47;3.03;;;7.40;99.90;;;;;;5085069;28;20803;-65